Latest Weather Observations for Dunalley

IDT60901

Issued at 5:31 pm EST Thursday 9 April 2020 (issued every 10 minutes, with the page automatically refreshed every 10 minutes)

About weather observations | Map of Hobart area stations | Latest observations for Hobart area | Other Formats
Station Details ID: 094254 Name: DUNALLEY (STROUD POINT) Lat: -42.90 Lon: 147.79 Height: 12.43 m
Data from the previous 72 hours. | See also: Recent months at Dunalley
Date/Time
EST
Temp
°C
App
Temp
°C
Dew
Point
°C
Rel
Hum
%
Delta-T
°C
Wind Press
QNH
hPa
Press
MSL
hPa
Rain since
9am
mm
Dir  Spd
km/h
Gust
km/h
Spd
kts
Gust
kts
09/05:30pm 15.2 12.5 10.2 72 2.6 NE 15 17 8 9 1022.3 1022.3 0.0
09/05:00pm 16.0 12.9 10.3 69 3.0 NE 17 20 9 11 1022.5 1022.5 0.0
09/04:30pm 16.5 12.9 9.9 65 3.5 NE 19 20 10 11 1022.8 1022.8 0.0
09/04:00pm 16.7 13.1 9.9 64 3.6 NE 19 20 10 11 1023.3 1023.3 0.0
09/03:30pm 17.0 13.3 10.1 64 3.6 NE 20 22 11 12 1023.7 1023.7 0.0
09/03:00pm 17.5 14.3 9.9 61 4.0 NE 17 20 9 11 1024.0 1024.0 0.0
09/02:30pm 17.5 14.1 9.2 58 4.3 NE 17 19 9 10 1024.5 1024.5 0.0
09/02:00pm 17.6 14.7 9.8 60 4.1 NE 15 17 8 9 1025.0 1025.0 0.0
09/01:30pm 17.4 14.9 9.6 60 4.1 ENE 13 17 7 9 1025.4 1025.4 0.0
09/01:00pm 16.8 14.4 10.0 64 3.6 ENE 13 17 7 9 1025.9 1025.9 0.0
09/12:30pm 16.3 14.1 9.3 63 3.6 ENE 11 13 6 7 1026.5 1026.5 0.0
09/12:00pm 15.4 13.9 9.1 66 3.2 ESE 7 9 4 5 1027.3 1027.3 0.0
09/11:30am 13.8 12.2 8.2 69 2.8 SE 6 6 3 3 1027.8 1027.8 0.0
09/11:00am 13.3 12.1 8.0 70 2.6 SE 4 6 2 3 1028.1 1028.1 0.0
09/10:30am 12.9 11.3 8.0 72 2.4 SE 6 7 3 4 1028.5 1028.5 0.0
09/10:00am 12.2 10.4 7.9 75 2.1 SE 7 9 4 5 1028.9 1028.9 0.0
09/09:30am 11.5 9.9 8.2 80 1.6 SE 6 7 3 4 1029.3 1029.3 0.0
09/09:00am 11.1 10.0 8.3 83 1.4 SE 4 6 2 3 1029.2 1029.2 0.0
09/08:30am 10.3 9.8 7.9 85 1.2 CALM 0 2 0 1 1029.6 1029.6 0.0
09/08:00am 10.4 10.0 8.3 87 1.0 CALM 0 0 0 0 1029.7 1029.7 0.0
09/07:30am 8.6 7.5 6.7 88 0.9 SE 2 4 1 2 1029.7 1029.7 0.0
09/07:00am 7.4 5.6 5.4 87 0.9 SE 4 4 2 2 1029.4 1029.4 0.0
09/06:30am 7.9 6.6 5.9 87 0.9 SE 2 2 1 1 1029.4 1029.4 0.0
09/06:00am 7.8 6.1 5.9 88 0.9 SE 4 4 2 2 1029.3 1029.3 0.0
09/05:30am 7.1 4.9 5.3 88 0.8 SE 6 6 3 3 1029.3 1029.3 0.0
09/05:00am 7.4 5.2 5.5 88 0.8 SE 6 7 3 4 1029.3 1029.3 0.0
09/04:30am 7.2 5.4 5.3 88 0.8 SE 4 6 2 3 1029.3 1029.3 0.0
09/04:00am 7.1 5.2 5.1 87 0.9 SE 4 6 2 3 1029.2 1029.2 0.0
09/03:30am 7.4 5.2 5.4 87 0.9 SE 6 6 3 3 1029.3 1029.3 0.0
09/03:00am 7.6 5.4 5.4 86 1.0 SE 6 6 3 3 1029.5 1029.5 0.0
09/02:30am 7.8 5.7 5.6 86 1.0 SE 6 6 3 3 1029.8 1029.9 0.0
09/02:00am 7.5 5.3 5.3 86 1.0 SE 6 7 3 4 1030.1 1030.1 0.0
09/01:30am 7.5 5.1 5.1 85 1.1 SE 7 9 4 5 1030.3 1030.3 0.0
09/01:00am 7.8 5.0 5.3 84 1.1 SE 9 9 5 5 1030.4 1030.4 0.0
09/12:30am 7.7 5.2 4.8 82 1.3 SE 7 9 4 5 1030.5 1030.5 0.0
09/12:00am 7.1 4.4 3.5 78 1.5 SE 7 9 4 5 1030.6 1030.6 0.0
 
Date/Time
EST
Temp
°C
App
Temp
°C
Dew
Point
°C
Rel
Hum
%
Delta-T
°C
Wind Press
QNH
hPa
Press
MSL
hPa
Rain since
9am
mm
Dir  Spd
km/h
Gust
km/h
Spd
kts
Gust
kts
08/11:30pm 7.5 4.8 3.6 76 1.7 SE 7 9 4 5 1030.8 1030.8 0.0
08/11:00pm 8.7 6.6 3.9 72 2.1 SE 4 4 2 2 1030.9 1030.9 0.0
08/10:30pm 9.4 7.4 4.6 72 2.1 SE 4 6 2 3 1031.1 1031.1 0.0
08/10:00pm 9.7 8.2 4.9 72 2.1 SE 2 2 1 1 1031.2 1031.2 0.0
08/09:30pm 9.5 7.5 4.5 71 2.2 SE 4 6 2 3 1031.1 1031.1 0.0
08/09:00pm 9.9 7.9 4.5 69 2.4 SE 4 4 2 2 1030.8 1030.8 0.0
08/08:30pm 9.9 8.3 4.7 70 2.3 SE 2 4 1 2 1030.5 1030.5 0.0
08/08:00pm 10.3 8.8 5.1 70 2.3 SE 2 6 1 3 1030.2 1030.2 0.0
08/07:30pm 10.6 7.7 4.9 68 2.6 SE 9 11 5 6 1029.8 1029.9 0.0
08/07:00pm 11.2 7.6 5.1 66 2.8 SSE 13 15 7 8 1029.6 1029.6 0.0
08/06:30pm 11.5 7.7 5.6 67 2.7 SE 15 17 8 9 1029.4 1029.4 0.0
08/06:00pm 11.9 8.4 5.5 65 2.9 SSE 13 17 7 9 1029.0 1029.0 0.0
08/05:30pm 12.1 10.1 4.3 59 3.5 S 4 6 2 3 1028.8 1028.8 0.0
08/05:00pm 12.9 10.5 4.3 56 3.9 S 6 7 3 4 1028.6 1028.6 0.0
08/04:30pm 13.2 10.7 4.6 56 3.9 S 7 11 4 6 1028.5 1028.5 0.0
08/04:00pm 13.4 11.1 4.6 55 4.0 SSE 6 11 3 6 1028.5 1028.5 0.0
08/03:30pm 13.5 10.3 5.2 57 3.9 SSE 11 15 6 8 1028.6 1028.6 0.0
08/03:00pm 13.4 9.4 5.1 57 3.8 S 15 19 8 10 1028.5 1028.5 0.0
08/02:30pm 13.8 10.0 5.7 58 3.8 S 15 24 8 13 1028.4 1028.4 0.0
08/02:00pm 13.4 9.9 5.6 59 3.6 S 13 17 7 9 1028.4 1028.4 0.0
08/01:30pm 13.3 9.4 5.5 59 3.7 SSW 15 19 8 10 1028.4 1028.4 0.0
08/01:00pm 13.3 9.3 5.0 57 3.8 SW 15 22 8 12 1028.7 1028.7 0.0
08/12:30pm 13.4 10.1 4.8 56 4.0 SW 11 15 6 8 1028.8 1028.8 0.0
08/12:00pm 13.6 9.4 5.5 58 3.8 SW 17 26 9 14 1028.8 1028.8 0.0
08/11:30am 13.4 9.7 4.3 54 4.2 WSW 13 19 7 10 1028.7 1028.7 0.0
08/11:00am 13.1 8.4 5.0 58 3.7 SW 19 24 10 13 1028.7 1028.7 0.0
08/10:30am 12.9 7.7 5.3 60 3.5 SSW 22 26 12 14 1028.5 1028.5 0.0
08/10:00am 12.8 8.2 5.7 62 3.3 SSW 19 26 10 14 1028.4 1028.4 0.0
08/09:30am 12.5 7.7 7.4 71 2.5 SW 22 30 12 16 1028.1 1028.1 0.0
08/09:00am 12.3 8.6 7.8 74 2.2 SSW 17 20 9 11 1027.8 1027.8 0.4
08/08:30am 12.3 7.9 9.0 80 1.7 SW 22 26 12 14 1027.3 1027.3 0.4
08/08:00am 11.9 7.6 9.5 85 1.2 WSW 22 28 12 15 1027.0 1027.0 0.4
08/07:30am 11.6 7.9 9.5 87 1.1 SW 19 24 10 13 1026.4 1026.4 0.4
08/07:00am 11.1 7.3 9.2 88 0.9 WSW 19 22 10 12 1026.2 1026.2 0.4
08/06:30am 10.8 6.8 8.9 88 0.9 WSW 20 28 11 15 1025.9 1025.9 0.4
08/06:00am 11.3 8.7 9.4 88 0.9 SW 13 19 7 10 1025.5 1025.5 0.4
08/05:30am 10.7 7.9 8.6 87 1.0 S 13 19 7 10 1025.3 1025.3 0.4
08/05:00am 11.1 6.2 8.3 83 1.4 SW 24 32 13 17 1025.0 1025.0 0.2
08/04:30am 11.4 7.4 9.0 85 1.2 WSW 20 24 11 13 1024.5 1024.5 0.2
08/04:00am 11.1 8.4 8.8 86 1.1 SSW 13 20 7 11 1024.5 1024.5 0.2
08/03:30am 11.7 6.4 8.4 80 1.6 SW 26 32 14 17 1024.2 1024.2 0.2
08/03:00am 11.9 7.3 8.2 78 1.8 WSW 22 26 12 14 1023.9 1023.9 0.2
08/02:30am 12.0 7.9 8.5 79 1.7 WSW 20 24 11 13 1023.8 1023.8 0.2
08/02:00am 11.8 8.3 8.8 82 1.5 SW 17 24 9 13 1024.1 1024.1 0.0
08/01:30am 11.8 7.9 8.6 81 1.6 SW 19 22 10 12 1023.9 1023.9 0.0
08/01:00am 11.8 7.7 8.8 82 1.5 WSW 20 24 11 13 1023.6 1023.6 0.0
08/12:30am 12.0 7.2 8.7 80 1.6 WSW 24 28 13 15 1023.4 1023.4 0.0
08/12:00am 12.2 6.9 8.5 78 1.8 SSW 26 32 14 17 1023.4 1023.4 0.0
 
Date/Time
EST
Temp
°C
App
Temp
°C
Dew
Point
°C
Rel
Hum
%
Delta-T
°C
Wind Press
QNH
hPa
Press
MSL
hPa
Rain since
9am
mm
Dir  Spd
km/h
Gust
km/h
Spd
kts
Gust
kts
07/11:30pm 12.4 8.0 9.1 80 1.7 SW 22 26 12 14 1023.1 1023.1 0.0
07/11:00pm 12.3 8.0 9.5 83 1.4 SW 22 28 12 15 1023.1 1023.1 0.0
07/10:30pm 12.3 8.2 10.0 86 1.2 SW 22 28 12 15 1022.9 1022.9 0.0
07/10:00pm 11.9 8.4 10.1 89 0.9 SW 19 24 10 13 1022.9 1022.9 0.0
07/09:30pm 11.7 6.4 9.9 89 0.9 SSW 28 33 15 18 1022.7 1022.7 0.0
07/09:00pm 12.5 6.9 10.0 85 1.3 SSW 30 41 16 22 1022.3 1022.3 0.0
07/08:30pm 12.7 7.0 9.9 83 1.4 S 30 37 16 20 1022.0 1022.0 0.0
07/08:00pm 12.9 8.0 10.1 83 1.4 SSW 26 30 14 16 1021.6 1021.6 0.0
07/07:30pm 13.1 9.0 10.1 82 1.5 S 22 28 12 15 1021.5 1021.5 0.0
07/07:00pm 13.7 10.2 10.1 79 1.9 S 19 22 10 12 1021.1 1021.1 0.0
07/06:30pm 13.8 10.1 10.2 79 1.9 S 20 22 11 12 1020.6 1020.6 0.0
07/06:00pm 14.1 10.5 9.9 76 2.2 S 19 22 10 12 1020.3 1020.3 0.0
07/05:30pm 14.8 11.1 9.4 70 2.8 WSW 19 20 10 11 1020.0 1020.0 0.0
07/05:00pm 15.4 12.1 9.5 68 3.0 WSW 17 19 9 10 1019.7 1019.7 0.0
07/04:30pm 15.6 13.3 9.1 65 3.3 WSW 11 13 6 7 1019.7 1019.7 0.0
07/04:00pm 16.1 13.7 8.6 61 3.8 WSW 11 15 6 8 1019.7 1019.7 0.0
07/03:30pm 17.0 13.5 8.7 58 4.3 W 17 20 9 11 1019.9 1019.9 0.0
07/03:00pm 16.0 12.7 8.2 60 3.9 WSW 15 19 8 10 1019.9 1019.9 0.0
07/02:30pm 16.2 12.7 8.9 62 3.7 WSW 17 24 9 13 1019.8 1019.8 0.0
07/02:00pm 15.6 12.5 7.1 57 4.2 WSW 13 15 7 8 1020.1 1020.1 0.0
07/01:30pm 16.2 13.7 8.4 60 4.0 WSW 11 15 6 8 1020.4 1020.4 0.0
07/01:00pm 15.4 12.8 7.9 61 3.7 SW 11 13 6 7 1020.8 1020.8 0.0
07/12:30pm 15.5 12.8 7.5 59 4.0 WSW 11 15 6 8 1021.1 1021.1 0.0
07/12:00pm 15.3 12.1 6.8 57 4.1 W 13 22 7 12 1021.2 1021.2 0.0
07/11:30am 15.1 11.5 6.9 58 4.0 W 15 19 8 10 1021.5 1021.5 0.0
07/11:00am 14.6 10.7 6.9 60 3.7 W 17 22 9 12 1021.6 1021.6 0.0
07/10:30am 14.3 11.0 6.4 59 3.8 WNW 13 17 7 9 1021.9 1021.9 0.0
07/10:00am 13.4 9.6 5.6 59 3.7 WNW 15 19 8 10 1021.9 1021.9 0.0
07/09:30am 13.0 8.7 5.4 60 3.5 WNW 17 20 9 11 1022.0 1022.0 0.0
07/09:00am 12.4 8.1 5.3 62 3.3 NW 17 22 9 12 1022.0 1022.0 0.0
07/08:30am 11.3 6.9 4.7 64 3.0 NW 17 24 9 13 1021.8 1021.8 0.0
07/08:00am 10.4 5.9 4.3 66 2.7 NW 17 26 9 14 1021.7 1021.7 0.0
07/07:30am 9.5 4.6 3.9 68 2.5 NNW 19 24 10 13 1021.6 1021.6 0.0
07/07:00am 9.5 5.0 4.3 70 2.3 NNW 17 24 9 13 1021.5 1021.5 0.0
07/06:30am 9.1 5.3 4.1 71 2.2 NNW 13 19 7 10 1021.5 1021.5 0.0
07/06:00am 8.7 4.5 3.7 71 2.2 NNW 15 20 8 11 1021.4 1021.4 0.0
07/05:30am 8.7 4.8 3.5 70 2.2 NW 13 19 7 10 1021.2 1021.2 0.0
07/05:00am 9.1 5.3 3.9 70 2.3 NW 13 17 7 9 1021.2 1021.2 0.0
07/04:30am 9.1 5.3 4.1 71 2.2 NW 13 15 7 8 1020.9 1020.9 0.0
07/04:00am 9.1 5.3 3.9 70 2.3 WNW 13 17 7 9 1020.9 1020.9 0.0
07/03:30am 9.5 5.7 4.1 69 2.4 WNW 13 17 7 9 1020.9 1020.9 0.0
07/03:00am 10.2 6.1 4.6 68 2.5 WNW 15 17 8 9 1020.9 1020.9 0.0
07/02:30am 10.3 6.6 4.7 68 2.5 NW 13 17 7 9 1021.0 1021.0 0.0
07/02:00am 10.4 6.7 4.3 66 2.7 NW 13 17 7 9 1021.1 1021.1 0.0
07/01:30am 10.8 7.1 4.5 65 2.8 WNW 13 19 7 10 1021.1 1021.1 0.0
07/01:00am 10.7 6.6 4.4 65 2.8 WNW 15 17 8 9 1021.1 1021.1 0.0
07/12:30am 10.7 7.4 4.6 66 2.7 NW 11 13 6 7 1021.1 1021.1 0.0
07/12:00am 11.1 7.8 4.6 64 2.9 NW 11 15 6 8 1021.1 1021.1 0.0
 
Date/Time
EST
Temp
°C
App
Temp
°C
Dew
Point
°C
Rel
Hum
%
Delta-T
°C
Wind Press
QNH
hPa
Press
MSL
hPa
Rain since
9am
mm
Dir  Spd
km/h
Gust
km/h
Spd
kts
Gust
kts
06/11:30pm 11.6 5.9 5.0 64 3.0 WSW 24 33 13 18 1021.0 1021.0 0.0
06/11:00pm 12.1 6.1 5.5 64 3.1 WSW 26 32 14 17 1021.0 1021.0 0.0
06/10:30pm 12.0 6.8 5.6 65 3.0 WSW 22 26 12 14 1021.0 1021.0 0.0
06/10:00pm 11.8 6.2 5.4 65 2.9 W 24 30 13 16 1020.8 1020.8 0.0
06/09:30pm 12.1 5.0 5.5 64 3.1 W 32 37 17 20 1020.7 1020.7 0.0
06/09:00pm 12.2 5.5 5.6 64 3.1 WSW 30 39 16 21 1020.6 1020.6 0.0
06/08:30pm 12.2 4.1 5.4 63 3.2 WSW 37 44 20 24 1020.1 1020.1 0.0
06/08:00pm 12.3 4.3 5.5 63 3.2 WSW 37 44 20 24 1019.9 1019.9 0.0
06/07:30pm 12.5 3.7 5.4 62 3.3 WSW 41 48 22 26 1019.3 1019.3 0.0
06/07:00pm 12.7 4.8 6.1 64 3.1 WSW 37 44 20 24 1018.8 1018.8 0.0
06/06:30pm 12.7 4.3 5.6 62 3.3 WSW 39 46 21 25 1018.2 1018.2 0.0
06/06:00pm 12.8 4.1 5.9 63 3.2 WSW 41 48 22 26 1017.8 1017.8 0.0

Latest Capital City Observations: Canberra | Sydney | Melbourne | Brisbane | Adelaide | Perth | Hobart | Darwin

Other formats

Comma delimited format used in spreadsheet applications
http://www.bom.gov.au/fwo/IDT60901/IDT60901.94951.axf

JavaScript Object Notation format (JSON) in row-major order
http://www.bom.gov.au/fwo/IDT60901/IDT60901.94951.json

Data quality

Most of these data are generated automatically and are frequently updated. Quality checks on data are not normally performed. It is possible for incorrect values to appear. Refer to information at About Latest Weather Observations and please check the disclaimer before using these data.